19 | 06 | 2019

Daten Vortag

Wetterdaten von 10m Höhe gemessen, Station2

Datum / Zeit Intervall min Luftfeuchte % Temperatur °C absolut Luftdruck hPa Wind m/s Windbö m/s Richtung Relative Luftdruck hPa Taupunkt °C Windchill °C Niederschlag mm
18-06-2019 00:09 5 87 16.6 1018.3 1.1 2.5 W 1021.2 14.4 16.6 0.0
18-06-2019 00:13 5 91 16.2 1018.2 1.1 2.5 W 1021.1 14.7 16.2 0.0
18-06-2019 00:18 5 92 16.1 1018.3 0.0 0.0 N 1021.2 14.8 16.1 0.0
18-06-2019 00:23 5 93 15.7 1018.2 0.0 0.0 N 1021.1 14.6 15.7 0.0
18-06-2019 00:28 5 93 15.6 1018.3 0.0 0.0 N 1021.2 14.5 15.6 0.0
18-06-2019 00:33 5 93 15.4 1018.2 0.0 0.0 N 1021.1 14.3 15.4 0.0
18-06-2019 00:38 5 93 15.4 1018.2 0.0 0.0 N 1021.1 14.3 15.4 0.0
18-06-2019 00:43 5 94 15.5 1018.2 0.0 0.0 E 1021.1 14.6 15.5 0.0
18-06-2019 00:48 5 94 15.5 1018.3 1.1 2.5 SE 1021.2 14.6 15.5 0.0
18-06-2019 00:53 5 95 15.7 1018.2 0.0 0.0 SE 1021.1 14.9 15.7 0.0
18-06-2019 00:58 5 95 15.8 1018.1 1.1 2.5 E 1021.0 15.0 15.8 0.0
18-06-2019 01:03 5 95 15.9 1018.2 1.1 3.6 SE 1021.1 15.1 15.9 0.0
18-06-2019 01:08 5 94 16.0 1018.2 0.0 1.1 E 1021.1 15.1 16.0 0.0
18-06-2019 01:13 5 93 16.0 1018.0 1.1 3.6 E 1020.9 14.9 16.0 0.0
18-06-2019 01:18 5 93 16.0 1018.1 0.0 0.0 SE 1021.0 14.9 16.0 0.0
18-06-2019 01:23 5 93 16.2 1018.1 0.0 0.0 NEE 1021.0 15.1 16.2 0.0
18-06-2019 01:28 5 92 16.1 1017.9 1.1 2.5 E 1020.8 14.8 16.1 0.0
18-06-2019 01:33 5 92 16.1 1018.0 0.0 0.0 E 1020.9 14.8 16.1 0.0
18-06-2019 01:38 5 92 16.0 1018.0 3.6 7.2 SE 1020.9 14.7 16.0 0.0
18-06-2019 01:43 5 92 15.8 1018.0 1.1 3.6 SE 1020.9 14.5 15.8 0.0
18-06-2019 01:48 5 93 15.9 1017.9 0.0 0.0 E 1020.8 14.8 15.9 0.0
18-06-2019 01:53 5 92 16.0 1017.8 1.1 3.6 E 1020.7 14.7 16.0 0.0
18-06-2019 01:58 5 91 16.2 1017.8 2.5 3.6 SEE 1020.7 14.7 16.2 0.0
18-06-2019 02:03 5 90 16.3 1017.8 2.5 3.6 E 1020.7 14.7 16.3 0.0
18-06-2019 02:08 5 90 16.2 1017.7 3.6 5.0 SE 1020.6 14.6 16.2 0.0
18-06-2019 02:13 5 89 16.3 1017.7 3.6 5.0 SE 1020.6 14.5 16.3 0.0
18-06-2019 02:18 5 89 16.3 1017.6 2.5 5.0 SE 1020.5 14.5 16.3 0.0
18-06-2019 02:23 5 88 16.3 1017.7 1.1 2.5 SE 1020.6 14.3 16.3 0.0
18-06-2019 02:28 5 88 16.3 1017.5 0.0 1.1 SE 1020.4 14.3 16.3 0.0
18-06-2019 02:33 5 88 16.1 1017.6 0.0 1.1 SE 1020.5 14.1 16.1 0.0
18-06-2019 02:38 5 89 15.7 1017.6 0.0 1.1 SE 1020.5 13.9 15.7 0.0
18-06-2019 02:43 5 89 15.3 1017.5 0.0 0.0 SE 1020.4 13.5 15.3 0.0
18-06-2019 02:48 5 90 15.0 1017.5 0.0 0.0 SE 1020.4 13.4 15.0 0.0
18-06-2019 02:53 5 92 14.9 1017.5 0.0 2.5 E 1020.4 13.6 14.9 0.0
18-06-2019 02:58 5 92 14.8 1017.5 0.0 0.0 E 1020.4 13.5 14.8 0.0
18-06-2019 03:03 5 93 14.7 1017.4 0.0 2.5 SE 1020.3 13.6 14.7 0.0
18-06-2019 03:08 5 94 14.9 1017.3 0.0 1.1 SE 1020.2 14.0 14.9 0.0
18-06-2019 03:13 5 94 15.1 1017.3 1.1 3.6 SE 1020.2 14.2 15.1 0.0
18-06-2019 03:18 5 94 15.1 1017.2 0.0 0.0 SE 1020.1 14.2 15.1 0.0
18-06-2019 03:23 5 94 14.9 1017.3 0.0 0.0 SE 1020.2 14.0 14.9 0.0
18-06-2019 03:28 5 94 14.5 1017.2 0.0 0.0 SE 1020.1 13.6 14.5 0.0
18-06-2019 03:33 5 94 14.2 1017.1 0.0 0.0 SE 1020.0 13.3 14.2 0.0
18-06-2019 03:38 5 94 14.0 1017.3 0.0 0.0 SE 1020.2 13.1 14.0 0.0
18-06-2019 03:43 5 94 14.0 1017.2 1.1 3.6 SE 1020.1 13.1 14.0 0.0
18-06-2019 03:48 5 95 14.2 1017.0 0.0 0.0 SE 1019.9 13.4 14.2 0.0
18-06-2019 03:53 5 95 14.2 1017.0 0.0 0.0 SE 1019.9 13.4 14.2 0.0
18-06-2019 03:58 5 95 14.0 1017.0 0.0 0.0 SE 1019.9 13.2 14.0 0.0
18-06-2019 04:03 5 96 13.9 1017.0 0.0 0.0 SE 1019.9 13.3 13.9 0.0
18-06-2019 04:08 5 96 13.9 1017.0 0.0 0.0 SE 1019.9 13.3 13.9 0.0
18-06-2019 04:13 5 96 14.0 1016.9 0.0 0.0 SE 1019.8 13.4 14.0 0.0
18-06-2019 04:18 5 96 14.0 1016.9 0.0 0.0 SE 1019.8 13.4 14.0 0.0
18-06-2019 04:23 5 96 14.0 1016.8 0.0 0.0 SE 1019.7 13.4 14.0 0.0
18-06-2019 04:28 5 96 14.0 1016.8 0.0 0.0 SE 1019.7 13.4 14.0 0.0
18-06-2019 04:33 5 97 14.1 1016.8 0.0 0.0 SE 1019.7 13.6 14.1 0.0
18-06-2019 04:38 5 97 14.3 1016.6 0.0 2.5 SE 1019.5 13.8 14.3 0.0
18-06-2019 04:43 5 97 14.6 1016.6 0.0 1.1 E 1019.5 14.1 14.6 0.0
18-06-2019 04:48 5 97 14.8 1016.6 0.0 0.0 E 1019.5 14.3 14.8 0.0
18-06-2019 04:53 5 96 14.9 1016.6 0.0 0.0 E 1019.5 14.3 14.9 0.0
18-06-2019 04:58 5 96 14.9 1016.6 0.0 0.0 E 1019.5 14.3 14.9 0.0
18-06-2019 05:03 5 95 14.9 1016.5 0.0 1.1 SE 1019.4 14.1 14.9 0.0
18-06-2019 05:08 5 95 14.9 1016.5 0.0 0.0 E 1019.4 14.1 14.9 0.0
18-06-2019 05:13 5 95 14.9 1016.4 0.0 0.0 E 1019.3 14.1 14.9 0.0
18-06-2019 05:18 5 94 15.0 1016.4 0.0 0.0 E 1019.3 14.1 15.0 0.0
18-06-2019 05:23 5 93 15.1 1016.4 0.0 0.0 E 1019.3 14.0 15.1 0.0
18-06-2019 05:28 5 93 15.0 1016.4 0.0 0.0 E 1019.3 13.9 15.0 0.0
18-06-2019 05:33 5 94 14.9 1016.3 0.0 0.0 E 1019.2 14.0 14.9 0.0
18-06-2019 05:38 5 93 15.0 1016.4 0.0 0.0 E 1019.3 13.9 15.0 0.0
18-06-2019 05:43 5 92 15.1 1016.2 0.0 0.0 E 1019.1 13.8 15.1 0.0
18-06-2019 05:48 5 93 15.6 1016.4 1.1 3.6 E 1019.3 14.5 15.6 0.0
18-06-2019 05:53 5 91 16.1 1016.3 0.0 0.0 E 1019.2 14.6 16.1 0.0
18-06-2019 05:58 5 89 16.2 1016.2 1.1 2.5 E 1019.1 14.4 16.2 0.0
18-06-2019 06:03 5 87 16.2 1016.3 1.1 2.5 E 1019.2 14.1 16.2 0.0
18-06-2019 06:08 5 87 16.2 1016.2 1.1 2.5 E 1019.1 14.1 16.2 0.0
18-06-2019 06:13 5 85 16.3 1016.2 0.0 0.0 SE 1019.1 13.8 16.3 0.0
18-06-2019 06:18 5 86 16.8 1016.2 0.0 0.0 SE 1019.1 14.5 16.8 0.0
18-06-2019 06:23 5 84 17.6 1016.1 0.0 0.0 SE 1019.0 14.9 17.6 0.0
18-06-2019 06:28 5 85 18.5 1016.1 0.0 0.0 SE 1019.0 16.0 18.5 0.0
18-06-2019 06:33 5 82 19.2 1016.2 0.0 0.0 SE 1019.1 16.1 19.2 0.0
18-06-2019 06:38 5 78 19.5 1015.9 0.0 0.0 SE 1018.8 15.6 19.5 0.0
18-06-2019 06:43 5 77 18.7 1016.0 0.0 0.0 SE 1018.9 14.6 18.7 0.0
18-06-2019 06:48 5 79 18.8 1016.0 0.0 0.0 SE 1018.9 15.1 18.8 0.0
18-06-2019 06:53 5 78 19.2 1015.9 2.5 5.0 SE 1018.8 15.3 19.2 0.0
18-06-2019 06:58 5 76 19.1 1015.9 3.6 8.6 SE 1018.8 14.8 19.1 0.0
18-06-2019 07:03 5 76 19.0 1015.9 2.5 6.1 E 1018.8 14.7 19.0 0.0
18-06-2019 07:08 5 78 18.9 1015.8 0.0 2.5 S 1018.7 15.0 18.9 0.0
18-06-2019 07:13 5 78 19.0 1015.9 2.5 3.6 SE 1018.8 15.1 19.0 0.0
18-06-2019 07:18 5 79 19.0 1015.7 3.6 5.0 SE 1018.6 15.3 19.0 0.0
18-06-2019 07:23 5 79 19.1 1015.9 1.1 3.6 SE 1018.8 15.4 19.1 0.0
18-06-2019 07:28 5 80 19.3 1015.9 1.1 2.5 SE 1018.8 15.8 19.3 0.0
18-06-2019 07:33 5 79 19.6 1015.9 5.0 7.2 SE 1018.8 15.9 19.6 0.0
18-06-2019 07:38 5 78 19.4 1015.9 3.6 8.6 SE 1018.8 15.5 19.4 0.0
18-06-2019 07:43 5 79 19.4 1015.8 5.0 7.2 SE 1018.7 15.7 19.4 0.0
18-06-2019 07:48 5 79 19.3 1015.7 2.5 5.0 SE 1018.6 15.6 19.3 0.0
18-06-2019 07:53 5 79 19.5 1015.8 5.0 12.2 SE 1018.7 15.8 19.5 0.0
18-06-2019 07:58 5 78 19.5 1015.8 6.1 9.7 SE 1018.7 15.6 19.5 0.0
18-06-2019 08:03 5 79 19.7 1015.8 6.1 8.6 SE 1018.7 16.0 19.7 0.0
18-06-2019 08:08 5 78 20.0 1015.7 5.0 9.7 E 1018.6 16.1 20.0 0.0
18-06-2019 08:13 5 78 20.4 1015.9 3.6 6.1 SE 1018.8 16.5 20.4 0.0
18-06-2019 08:18 5 77 20.7 1015.7 7.2 12.2 SE 1018.6 16.5 20.1 0.0
18-06-2019 08:23 5 76 21.1 1015.7 5.0 8.6 SE 1018.6 16.7 21.1 0.0
18-06-2019 08:28 5 75 21.1 1015.7 6.1 9.7 SE 1018.6 16.5 21.1 0.0
18-06-2019 08:33 5 75 21.3 1015.7 3.6 7.2 SE 1018.6 16.7 21.3 0.0
18-06-2019 08:38 5 75 21.1 1015.6 3.6 7.2 S 1018.5 16.5 21.1 0.0
18-06-2019 08:43 5 77 21.4 1015.6 3.6 8.6 S 1018.5 17.2 21.4 0.0
18-06-2019 08:48 5 75 21.5 1015.5 6.1 12.2 SE 1018.4 16.9 21.5 0.0
18-06-2019 08:53 5 74 21.6 1015.6 2.5 5.0 SE 1018.5 16.8 21.6 0.0
18-06-2019 08:58 5 75 21.9 1015.5 2.5 5.0 SE 1018.4 17.3 21.9 0.0
18-06-2019 09:03 5 74 21.8 1015.4 5.0 6.1 SE 1018.3 17.0 21.8 0.0
18-06-2019 09:08 5 73 22.1 1015.6 2.5 7.2 S 1018.5 17.1 22.1 0.0
18-06-2019 09:13 5 73 22.5 1015.6 3.6 5.0 SE 1018.5 17.4 22.5 0.0
18-06-2019 09:18 5 72 22.6 1015.4 7.2 11.2 E 1018.3 17.3 22.1 0.0
18-06-2019 09:23 5 71 22.7 1015.6 6.1 12.2 SE 1018.5 17.2 22.7 0.0
18-06-2019 09:28 5 71 22.5 1015.5 6.1 11.2 SE 1018.4 17.0 22.5 0.0
18-06-2019 09:33 5 73 22.7 1015.4 6.1 8.6 SE 1018.3 17.6 22.7 0.0
18-06-2019 09:38 5 74 23.1 1015.4 5.0 8.6 SW 1018.3 18.2 23.1 0.0
18-06-2019 09:43 5 72 22.9 1015.3 2.5 6.1 SSE 1018.2 17.6 22.9 0.0
18-06-2019 09:48 5 74 23.0 1015.2 6.1 12.2 SE 1018.1 18.1 23.0 0.0
18-06-2019 09:53 5 74 23.3 1015.2 9.7 14.8 SE 1018.1 18.4 22.2 0.0
18-06-2019 09:58 5 74 23.5 1015.1 8.6 11.2 SE 1018.0 18.6 22.7 0.0
18-06-2019 10:03 5 71 23.6 1015.2 3.6 9.7 SSE 1018.1 18.1 23.6 0.0
18-06-2019 10:08 5 71 23.6 1015.2 3.6 9.7 SSE 1018.1 18.1 23.6 0.0
18-06-2019 10:13 5 70 24.7 1015.1 3.6 7.2 SSE 1018.0 18.9 24.7 0.0
18-06-2019 10:18 5 67 24.5 1015.2 9.7 15.8 SE 1018.1 18.0 23.5 0.0
18-06-2019 10:23 5 67 24.9 1015.3 5.0 7.2 S 1018.2 18.4 24.9 0.0
18-06-2019 10:28 5 63 25.2 1015.2 11.2 19.4 S 1018.1 17.7 24.1 0.0
18-06-2019 10:33 5 61 25.0 1015.1 5.0 9.7 SE 1018.0 17.0 25.0 0.0
18-06-2019 10:38 5 64 25.3 1015.1 5.0 7.2 SE 1018.0 18.0 25.3 0.0
18-06-2019 10:43 5 61 25.4 1015.0 8.6 13.3 SE 1017.9 17.4 24.7 0.0
18-06-2019 10:48 5 59 25.4 1015.0 5.0 8.6 S 1017.9 16.8 25.4 0.0
18-06-2019 10:53 5 61 25.7 1015.0 7.2 13.3 SSE 1017.9 17.6 25.3 0.0
18-06-2019 10:58 5 57 25.7 1015.1 6.1 12.2 SE 1018.0 16.6 25.7 0.0
18-06-2019 11:03 5 60 25.7 1014.9 3.6 6.1 SE 1017.8 17.4 25.7 0.0
18-06-2019 11:08 5 57 26.0 1015.0 6.1 11.2 S 1017.9 16.9 26.0 0.0
18-06-2019 11:13 5 57 26.1 1014.9 6.1 18.4 S 1017.8 16.9 26.1 0.0
18-06-2019 11:18 5 58 26.4 1015.0 11.2 15.8 SE 1017.9 17.5 25.5 0.0
18-06-2019 11:23 5 55 26.4 1014.8 6.1 11.2 SW 1017.7 16.7 26.4 0.0
18-06-2019 11:28 5 54 26.2 1014.8 11.2 15.8 SE 1017.7 16.2 25.2 0.0
18-06-2019 11:33 5 54 26.3 1014.9 5.0 8.6 SE 1017.8 16.3 26.3 0.0
18-06-2019 11:38 5 55 26.4 1014.8 11.2 14.8 SE 1017.7 16.7 25.5 0.0
18-06-2019 11:43 5 53 26.5 1014.7 9.7 18.4 S 1017.6 16.2 25.8 0.0
18-06-2019 11:48 5 53 26.6 1014.7 9.7 13.3 SE 1017.6 16.3 25.9 0.0
18-06-2019 11:53 5 53 26.7 1014.7 13.3 18.4 SE 1017.6 16.4 25.5 0.0
18-06-2019 11:58 5 53 26.7 1014.6 6.1 11.2 SE 1017.5 16.4 26.7 0.0
18-06-2019 12:03 5 52 27.0 1014.6 12.2 17.3 SE 1017.5 16.3 26.0 0.0
18-06-2019 12:08 5 52 27.0 1014.6 12.2 17.3 SE 1017.5 16.3 26.0 0.0
18-06-2019 12:13 5 49 26.7 1014.6 9.7 18.4 SSE 1017.5 15.1 26.0 0.0
18-06-2019 12:18 5 50 26.8 1014.6 14.8 25.6 SE 1017.5 15.5 25.5 0.0
18-06-2019 12:23 5 50 26.8 1014.7 13.3 24.5 SE 1017.6 15.5 25.7 0.0
18-06-2019 12:28 5 49 26.9 1014.6 9.7 14.8 S 1017.5 15.3 26.2 0.0
18-06-2019 12:33 5 49 27.2 1014.5 11.2 17.3 SE 1017.4 15.6 26.4 0.0
18-06-2019 12:38 5 49 27.3 1014.6 11.2 20.9 SE 1017.5 15.7 26.5 0.0
18-06-2019 12:43 5 49 27.4 1014.6 18.4 25.6 SE 1017.5 15.8 25.9 0.0
18-06-2019 12:48 5 48 27.3 1014.6 13.3 29.5 S 1017.5 15.4 26.3 0.0
18-06-2019 12:53 5 48 27.2 1014.3 12.2 25.6 SEE 1017.2 15.3 26.2 0.0
18-06-2019 12:58 5 49 27.4 1014.3 8.6 13.3 SE 1017.2 15.8 26.9 0.0
18-06-2019 13:03 5 47 27.3 1014.4 11.2 17.3 SE 1017.3 15.0 26.5 0.0
18-06-2019 13:08 5 47 27.1 1014.3 7.2 13.3 S 1017.2 14.9 26.8 0.0
18-06-2019 13:13 5 47 27.1 1014.3 8.6 13.3 SE 1017.2 14.9 26.6 0.0
18-06-2019 13:18 5 49 27.3 1014.2 12.2 19.4 S 1017.1 15.7 26.4 0.0
18-06-2019 13:23 5 45 27.1 1014.3 12.2 25.6 S 1017.2 14.2 26.1 0.0
18-06-2019 13:28 5 47 27.4 1014.2 11.2 20.9 SE 1017.1 15.1 26.6 0.0
18-06-2019 13:33 5 45 27.3 1014.2 7.2 9.7 S 1017.1 14.4 27.0 0.0
18-06-2019 13:38 5 47 27.7 1014.2 15.8 27.0 SE 1017.1 15.4 26.5 0.0
18-06-2019 13:43 5 44 27.5 1014.2 13.3 22.0 SE 1017.1 14.2 26.5 0.0
18-06-2019 13:48 5 45 27.7 1014.2 7.2 18.4 SE 1017.1 14.7 27.4 0.0
18-06-2019 13:53 5 44 27.8 1014.2 11.2 18.4 S 1017.1 14.5 27.1 0.0
18-06-2019 13:58 5 44 27.8 1014.2 14.8 20.9 SE 1017.1 14.5 26.7 0.0
18-06-2019 14:03 5 44 27.9 1014.1 9.7 18.4 SE 1017.0 14.6 27.3 0.0
18-06-2019 14:08 5 44 27.9 1014.0 9.7 18.4 SE 1016.9 14.6 27.3 0.0
18-06-2019 14:13 5 45 28.0 1013.9 6.1 11.2 SE 1016.8 15.0 28.0 0.0
18-06-2019 14:18 5 42 27.8 1014.1 7.2 12.2 SE 1017.0 13.7 27.5 0.0
18-06-2019 14:23 5 43 27.8 1013.9 7.2 11.2 S 1016.8 14.1 27.5 0.0
18-06-2019 14:28 5 42 27.8 1014.0 9.7 15.8 SE 1016.9 13.7 27.2 0.0
18-06-2019 14:33 5 44 27.9 1013.8 7.2 11.2 S 1016.7 14.6 27.7 0.0
18-06-2019 14:38 5 46 28.2 1013.6 9.7 17.3 SE 1016.5 15.5 27.7 0.0
18-06-2019 14:43 5 47 28.0 1013.7 3.6 12.2 SSE 1016.6 15.7 28.0 0.0
18-06-2019 14:48 5 43 27.7 1013.7 11.2 14.8 SE 1016.6 14.0 26.9 0.0
18-06-2019 14:53 5 44 27.9 1013.7 12.2 20.9 SE 1016.6 14.6 27.1 0.0
18-06-2019 14:58 5 43 27.8 1013.7 14.8 25.6 SSE 1016.6 14.1 26.7 0.0
18-06-2019 15:03 5 44 27.4 1013.6 7.2 11.2 SSE 1016.5 14.1 27.1 0.0
18-06-2019 15:08 5 46 28.0 1013.6 7.2 14.8 SE 1016.5 15.3 27.8 0.0
18-06-2019 15:13 5 45 28.4 1013.4 7.2 15.8 SSE 1016.3 15.4 28.2 0.0
18-06-2019 15:18 5 45 28.4 1013.5 3.6 11.2 SE 1016.4 15.4 28.4 0.0
18-06-2019 15:23 5 44 28.3 1013.2 14.8 20.9 SE 1016.1 14.9 27.3 0.0
18-06-2019 15:28 5 46 28.0 1013.2 5.0 8.6 S 1016.1 15.3 28.0 0.0
18-06-2019 15:33 5 45 28.6 1013.3 7.2 14.8 S 1016.2 15.5 28.4 0.0
18-06-2019 15:38 5 46 28.9 1013.2 6.1 14.8 S 1016.1 16.2 28.9 0.0
18-06-2019 15:43 5 43 28.6 1013.1 8.6 11.2 S 1016.0 14.8 28.2 0.0
18-06-2019 15:48 5 43 28.6 1013.0 14.8 24.5 SE 1015.9 14.8 27.7 0.0
18-06-2019 15:53 5 42 28.6 1012.9 9.7 18.4 S 1015.8 14.5 28.1 0.0
18-06-2019 15:58 5 43 28.6 1012.9 15.8 28.1 SE 1015.8 14.8 27.6 0.0
18-06-2019 16:03 5 41 28.6 1012.9 12.2 23.4 SE 1015.8 14.1 27.9 0.0
18-06-2019 16:08 5 41 28.6 1012.9 12.2 23.4 SE 1015.8 14.1 27.9 0.0
18-06-2019 16:13 5 45 28.4 1012.7 6.1 11.2 SE 1015.6 15.4 28.4 0.0
18-06-2019 16:18 5 42 28.6 1012.8 8.6 13.3 SE 1015.7 14.5 28.2 0.0
18-06-2019 16:23 5 43 28.6 1012.7 6.1 12.2 S 1015.6 14.8 28.6 0.0
18-06-2019 16:28 5 40 29.1 1012.6 9.7 15.8 SE 1015.5 14.2 28.7 0.0
18-06-2019 16:33 5 38 29.0 1012.5 9.7 13.3 SE 1015.4 13.3 28.5 0.0
18-06-2019 16:38 5 40 29.2 1012.6 12.2 18.4 SE 1015.5 14.2 28.6 0.0
18-06-2019 16:43 5 40 29.0 1012.5 3.6 6.1 SE 1015.4 14.1 29.0 0.0
18-06-2019 16:48 5 42 29.3 1012.4 11.2 15.8 SE 1015.3 15.1 28.8 0.0
18-06-2019 16:53 5 39 28.8 1012.4 7.2 12.2 SE 1015.3 13.5 28.6 0.0
18-06-2019 16:58 5 39 28.8 1012.4 6.1 12.2 S 1015.3 13.5 28.8 0.0
18-06-2019 17:03 5 44 29.1 1012.3 8.6 17.3 SE 1015.2 15.6 28.8 0.0
18-06-2019 17:08 5 42 29.1 1012.3 9.7 12.2 SE 1015.2 14.9 28.7 0.0
18-06-2019 17:13 5 38 29.2 1012.2 11.2 17.3 SE 1015.1 13.5 28.7 0.0
18-06-2019 17:18 5 40 29.3 1012.1 13.3 18.4 SEE 1015.0 14.3 28.6 0.0
18-06-2019 17:23 5 42 29.3 1012.1 8.6 15.8 S 1015.0 15.1 29.0 0.0
18-06-2019 17:28 5 42 29.3 1012.1 8.6 14.8 S 1015.0 15.1 29.0 0.0
18-06-2019 17:33 5 39 29.2 1012.0 6.1 9.7 SE 1014.9 13.9 29.2 0.0
18-06-2019 17:38 5 42 29.1 1012.0 7.2 9.7 SSE 1014.9 14.9 28.9 0.0
18-06-2019 17:43 5 41 29.0 1011.9 2.5 7.2 SSE 1014.8 14.5 29.0 0.0
18-06-2019 17:48 5 43 28.9 1012.0 13.3 18.4 SE 1014.9 15.1 28.1 0.0
18-06-2019 17:53 5 42 28.9 1012.0 8.6 14.8 SSE 1014.9 14.7 28.5 0.0
18-06-2019 17:58 5 42 28.6 1011.9 6.1 11.2 SE 1014.8 14.5 28.6 0.0
18-06-2019 18:03 5 40 28.6 1011.8 8.6 12.2 SE 1014.7 13.7 28.2 0.0
18-06-2019 18:08 5 40 28.6 1011.7 8.6 12.2 SE 1014.6 13.7 28.2 0.0
18-06-2019 18:13 5 44 28.4 1011.8 3.6 6.1 SE 1014.7 15.0 28.4 0.0
18-06-2019 18:18 5 45 28.9 1011.7 3.6 5.0 E 1014.6 15.8 28.9 0.0
18-06-2019 18:23 5 45 29.0 1011.6 5.0 9.7 SE 1014.5 15.9 29.0 0.0
18-06-2019 18:28 5 46 28.5 1011.6 5.0 8.6 SSE 1014.5 15.8 28.5 0.0
18-06-2019 18:33 5 46 28.2 1011.4 3.6 5.0 SE 1014.3 15.5 28.2 0.0
18-06-2019 18:38 5 47 28.5 1011.6 2.5 6.1 SE 1014.5 16.1 28.5 0.0
18-06-2019 18:43 5 47 28.7 1011.6 2.5 6.1 SE 1014.5 16.3 28.7 0.0
18-06-2019 18:48 5 46 29.3 1011.7 5.0 7.2 NEE 1014.6 16.5 29.3 0.0
18-06-2019 18:53 5 46 29.6 1011.6 8.6 12.2 E 1014.5 16.8 29.3 0.0
18-06-2019 18:58 5 48 29.3 1011.5 9.7 12.2 E 1014.4 17.2 28.9 0.0
18-06-2019 19:03 5 48 28.6 1011.5 6.1 9.7 E 1014.4 16.5 28.6 0.0
18-06-2019 19:08 5 47 28.6 1011.5 7.2 13.3 SW 1014.4 16.2 28.4 0.0
18-06-2019 19:13 5 47 29.1 1011.5 2.5 3.6 E 1014.4 16.7 29.1 0.0
18-06-2019 19:18 5 48 28.7 1011.7 6.1 8.6 SE 1014.6 16.6 28.7 0.0
18-06-2019 19:23 5 48 28.6 1011.4 5.0 7.2 NE 1014.3 16.5 28.6 0.0
18-06-2019 19:28 5 48 28.5 1011.5 7.2 12.2 E 1014.4 16.5 28.3 0.0
18-06-2019 19:33 5 48 27.5 1011.5 8.6 11.2 SEE 1014.4 15.5 27.0 0.0
18-06-2019 19:38 5 50 27.2 1011.4 2.5 3.6 SSE 1014.3 15.9 27.2 0.0
18-06-2019 19:43 5 51 27.6 1011.3 3.6 6.1 E 1014.2 16.6 27.6 0.0
18-06-2019 19:48 5 51 27.7 1011.2 5.0 11.2 SE 1014.1 16.7 27.7 0.0
18-06-2019 19:53 5 52 27.8 1011.2 6.1 9.7 SE 1014.1 17.1 27.8 0.0
18-06-2019 19:58 5 52 27.8 1011.3 3.6 6.1 NEE 1014.2 17.1 27.8 0.0
18-06-2019 20:03 5 52 27.7 1011.2 3.6 6.1 SE 1014.1 17.0 27.7 0.0
18-06-2019 20:08 5 52 27.7 1011.3 3.6 6.1 SE 1014.2 17.0 27.7 0.0
18-06-2019 20:13 5 56 26.4 1011.2 6.1 8.6 E 1014.1 16.9 26.4 0.0
18-06-2019 20:18 5 57 25.9 1011.3 6.1 9.7 SE 1014.2 16.8 25.9 0.0
18-06-2019 20:23 5 58 25.5 1011.2 3.6 5.0 NEE 1014.1 16.7 25.5 0.0
18-06-2019 20:28 5 59 25.2 1011.2 3.6 7.2 SE 1014.1 16.6 25.2 0.0
18-06-2019 20:33 5 59 25.1 1011.1 2.5 6.1 SE 1014.0 16.6 25.1 0.0
18-06-2019 20:38 5 60 24.9 1011.0 3.6 5.0 SE 1013.9 16.6 24.9 0.0
18-06-2019 20:43 5 59 24.9 1011.1 5.0 7.2 E 1014.0 16.4 24.9 0.0
18-06-2019 20:48 5 59 24.8 1011.1 3.6 5.0 E 1014.0 16.3 24.8 0.0
18-06-2019 20:53 5 59 24.5 1011.2 5.0 7.2 SE 1014.1 16.0 24.5 0.0
18-06-2019 20:58 5 60 24.3 1011.2 5.0 7.2 E 1014.1 16.1 24.3 0.0
18-06-2019 21:03 5 61 23.9 1011.2 3.6 6.1 E 1014.1 16.0 23.9 0.0
18-06-2019 21:08 5 62 23.7 1011.2 1.1 2.5 SE 1014.1 16.0 23.7 0.0
18-06-2019 21:13 5 63 23.5 1011.4 0.0 2.5 SE 1014.3 16.1 23.5 0.0
18-06-2019 21:18 5 65 23.3 1011.3 3.6 6.1 E 1014.2 16.4 23.3 0.0
18-06-2019 21:23 5 65 23.2 1011.4 1.1 3.6 SE 1014.3 16.3 23.2 0.0
18-06-2019 21:28 5 66 23.1 1011.3 3.6 6.1 E 1014.2 16.4 23.1 0.0
18-06-2019 21:33 5 67 23.0 1011.4 1.1 2.5 SE 1014.3 16.6 23.0 0.0
18-06-2019 21:38 5 67 22.8 1011.3 1.1 2.5 S 1014.2 16.4 22.8 0.0
18-06-2019 21:43 5 69 22.6 1011.3 1.1 5.0 S 1014.2 16.7 22.6 0.0
18-06-2019 21:48 5 70 22.4 1011.5 5.0 8.6 SE 1014.4 16.7 22.4 0.0
18-06-2019 21:53 5 70 22.3 1011.3 2.5 5.0 SE 1014.2 16.6 22.3 0.0
18-06-2019 21:58 5 71 22.0 1011.3 2.5 7.2 SE 1014.2 16.5 22.0 0.0
18-06-2019 22:03 5 72 21.9 1011.3 2.5 5.0 SE 1014.2 16.6 21.9 0.0
18-06-2019 22:08 5 72 21.6 1011.2 0.0 0.0 SE 1014.1 16.4 21.6 0.0
18-06-2019 22:13 5 73 21.3 1011.3 2.5 5.0 SE 1014.2 16.3 21.3 0.0
18-06-2019 22:18 5 73 21.2 1011.2 0.0 0.0 SE 1014.1 16.2 21.2 0.0
18-06-2019 22:23 5 74 21.1 1011.2 0.0 0.0 SE 1014.1 16.3 21.1 0.0
18-06-2019 22:28 5 76 20.9 1011.3 0.0 0.0 SE 1014.2 16.5 20.9 0.0
18-06-2019 22:33 5 76 20.7 1011.2 0.0 0.0 SE 1014.1 16.3 20.7 0.0
18-06-2019 22:38 5 76 20.5 1011.3 0.0 0.0 SE 1014.2 16.1 20.5 0.0
18-06-2019 22:43 5 77 20.4 1011.2 0.0 0.0 SE 1014.1 16.3 20.4 0.0
18-06-2019 22:48 5 77 20.3 1011.3 0.0 0.0 SE 1014.2 16.2 20.3 0.0
18-06-2019 22:53 5 78 20.3 1011.3 0.0 0.0 SE 1014.2 16.4 20.3 0.0
18-06-2019 22:58 5 77 20.1 1011.3 0.0 0.0 SE 1014.2 16.0 20.1 0.0
18-06-2019 23:03 5 78 19.8 1011.3 0.0 0.0 SE 1014.2 15.9 19.8 0.0
18-06-2019 23:08 5 79 19.8 1011.5 0.0 0.0 SE 1014.4 16.1 19.8 0.0
18-06-2019 23:13 5 79 19.8 1011.4 0.0 0.0 SE 1014.3 16.1 19.8 0.0
18-06-2019 23:18 5 79 19.7 1011.4 0.0 0.0 SE 1014.3 16.0 19.7 0.0
18-06-2019 23:23 5 80 19.5 1011.4 0.0 0.0 S 1014.3 16.0 19.5 0.0
18-06-2019 23:28 5 81 19.6 1011.3 0.0 1.1 SE 1014.2 16.3 19.6 0.0
18-06-2019 23:33 5 81 19.6 1011.4 0.0 0.0 SE 1014.3 16.3 19.6 0.0
18-06-2019 23:38 5 81 19.6 1011.2 0.0 0.0 SE 1014.1 16.3 19.6 0.0
18-06-2019 23:43 5 80 19.6 1011.2 0.0 0.0 SE 1014.1 16.1 19.6 0.0
18-06-2019 23:48 5 81 19.5 1011.2 0.0 1.1 SE 1014.1 16.2 19.5 0.0
18-06-2019 23:53 5 80 19.5 1011.4 1.1 3.6 SE 1014.3 16.0 19.5 0.0
18-06-2019 23:58 5 80 19.6 1011.2 0.0 1.1 SE 1014.1 16.1 19.6 0.0

                                                                                 Tabelle: 08 : 00 UHR

STATIONHÖHELUFTD.TEMP.T-MinT-MaxU%RR1RR12SSSDDFFFXWetter+WolkenBöen
UFS TW Ems 0 1015.6 16.5 15.8 18.2 84 ---- --- --- -- 11 --- --- ---
UFS Deutsche Bucht 0 1015.9 15.9 15.5 18.0 90 ---- --- --- -- 4 --- --- ---
Helgoland 4 1015.8 16.7 15.9 18.1 86 0.0 0 --- -- --- ---   ---
List/Sylt 26 1015.8 19.0 17.8 20.3 77 0.0 0 0 S 21 36 --- ---
Schleswig 43 1016.7 18.8 16.7 20.9 76 0.0 0 0 S 12 22 heiter ---
Leuchtturm Kiel 5 1017.1 18.4 17.3 19.4 79 ---- --- --- S 17 29 --- ---
Kiel 27 1017.0 19.5 16.7 21.8 74 0.0 0 --- S 8 15 --- ---
Fehmarn 3 1017.7 19.0 14.5 19.6 74 0.0 0 --- SO 19 34 --- ---
Arkona 42 ------ --- --- --- --- ---- --- --- -- --- --- --- ---
Norderney 11 1015.6 18.5 16.6 21.3 79 0.0 0 --- O 5 8 --- ---
Leuchtt. Alte Weser 32 1015.6 18.2 18.2 23.7 84 ---- --- --- S 18 --- --- ---
Cuxhaven 5 1016.0 19.7 17.5 23.4 69 0.0 0 --- SO 8 18   ---
Hamburg-Flh. 11 1017.0 19.9 16.9 24.6 68 0.0 0 0 SO 17 23 heiter ---
Schwerin 59 1018.1 20.7 17.3 24.4 66 0.0 0 --- SO 7 19 --- ---
Rostock 4 1018.5 19.3 17.3 21.1 62 0.0 0 --- SO 19 28 wolkenlos ---
Greifswald 2 1019.7 20.3 12.0 21.5 68 0.0 0 0 O 4 --- heiter ---
Emden 0 1015.6 18.3 13.1 24.5 81 0.0 0 --- SO 4 7 --- ---
Bremen-Flh. 5 1016.1 19.1 16.1 25.3 72 0.0 0 0 SO 9 17 heiter ---
Lüchow 17 1018.0 20.4 14.0 25.4 66 0.0 0 --- SO 10 17 --- ---
Marnitz 81 1018.3 20.4 14.0 24.1 68 0.0 0 --- S 9 18 --- ---
Waren 70 1018.9 20.2 15.5 23.4 68 0.0 0 --- SO 9 14 wolkenlos ---
Neuruppin 38 1019.0 20.1 15.2 24.8 68 0.0 0 --- SO 8 15 --- ---
Angermünde 56 1019.9 19.8 12.8 24.3 68 0.0 0 0 SO 5 14 wolkenlos ---
Münster/Osnabr.-Flh. 48 1015.7 19.4 15.8 25.9 69 0.0 0 0 SO 6 13 heiter ---
Hannover-Flh. 59 1016.6 19.5 14.6 24.8 68 0.0 0 0 O 8 15 heiter ---
Magdeburg 76 1018.0 20.5 15.9 26.4 63 0.0 0 --- SO 8 14 --- ---
Potsdam 81 1019.1 19.1 16.3 23.4 70 0.0 0 0 O 9 17 heiter ---
Berlin-Tegel 37 1019.3 22.3 17.0 25.4 56 0.0 0 0 SO 9 14 heiter ---
Berlin-Tempelhof 48 1019.3 21.1 15.7 23.4 62 0.0 0 --- SO 10 15 --- ---
Berlin-Dahlem 51 1019.2 19.3 14.6 24.2 --- ---- 0 0 SO 11 --- heiter ---
Lindenberg 91 1019.6 20.7 16.8 24.3 57 0.0 0 0 O 11 19 heiter ---
Düsseldorf-Flh. 45 1015.7 20.9 12.7 26.4 60 0.0 0 0 S 9 15 heiter ---
Essen 150 1015.6 20.6 17.5 24.7 63 0.0 0 --- SW 8 12 --- ---
Kahler Asten 839 ------ 17.1 14.9 18.4 66 0.0 0 --- S 12 18 --- ---
Bad Lippspringe 157 1015.7 20.9 16.1 24.6 61 0.0 0 --- SO 14 25 --- ---
Fritzlar 174 1017.0 16.9 13.3 24.5 82 ---- 0 0 NW 11 --- heiter ---
Brocken 1142 ------ 15.9 13.3 15.9 65 ---- 0 0 S 19 33 heiter ---
Leipzig-Flh. 142 1018.1 21.4 14.1 24.6 60 0.0 0 0 O 10 14 heiter ---
Dresden-Flh. 227 1018.7 20.9 15.6 24.8 56 0.0 0 0 SO 12 18 heiter ---
Cottbus 69 1019.4 21.2 14.8 25.7 54 0.0 0 --- O 7 15 wolkenlos ---
Görlitz 238 1019.7 18.3 12.1 23.4 66 0.0 0 --- SO 11 15 --- ---
Aachen 231 1015.2 20.7 13.7 24.5 65 0.0 0 --- S 6 11 --- ---
Nürburg 485 1016.4 15.5 11.5 22.3 74 0.0 0 --- SW 2 5 --- ---
Köln/Bonn-Flh. 92 1015.9 17.4 12.1 24.6 79 0.0 0 0 SO 4 9 heiter ---
Gießen/Wettenberg 203 1016.3 17.8 12.6 25.1 78 0.0 0 --- NO 5 8 wolkenlos ---
Wasserkuppe 921 ------ 17.5 13.7 19.5 72 0.0 0 0 SO 15 22 heiter ---
Meiningen 450 1017.1 19.0 15.2 22.6 63 0.0 0 --- S 5 9 --- ---
Erfurt 316 1017.3 18.5 14.0 23.6 66 0.0 0 0 NO 6 9 heiter ---
Gera 311 1018.0 18.6 13.1 23.2 71 0.0 0 --- SO 3 7 wolkenlos ---
Fichtelberg 1213 ------ 13.7 11.1 15.8 74 ---- --- --- -- --- ---   ---
Trier 265 1015.9 15.7 12.7 25.1 78 0.0 0 --- NO 5 9 wolkenlos ---
Hahn-Flh. 497 1015.6 17.5 15.2 21.8 71 0.0 0 --- SO 13 17 --- ---
Frankfurt/M-Flh. 112 1015.9 21.1 17.1 26.3 62 0.0 0 0 NO 13 21 heiter ---
OF-Wetterpark 119 1016.2 19.8 13.7 26.0 67 0.0 0 --- O 5 10 --- ---
Würzburg 268 1017.2 17.5 14.4 24.2 77 0.0 0 --- NW 3 9 --- ---
Bamberg 239 1016.9 18.7 12.8 24.5 67 0.0 0 --- NW 5 8 --- ---
Hof 567 1017.4 17.9 12.4 22.8 68 0.0 0 --- SO 8 14 wolkenlos ---
Weiden 438 1017.2 18.3 13.9 23.0 66 0.0 0 --- NW 4 6 wolkenlos ---
Saarbrücken-Flh. 320 1015.3 19.1 14.2 24.1 69 0.0 0 0 -- --- 8 heiter ---
Karlsruhe-Rheinst. 116 1015.6 18.6 13.0 25.6 76 0.0 0 --- SO 4 5 wolkenlos ---
Mannheim 96 1015.7 20.2 12.9 25.6 68 0.0 0 --- S 5 7 wolkenlos ---
Stuttgart-Flh. 371 1016.1 17.7 13.7 23.9 83 0.0 0 --- - 0 5 heiter ---
Öhringen 276 1015.6 21.9 15.9 25.1 64 0.0 0 --- O 3 10 wolkenlos ---
Nürnberg-Flh. 314 1016.8 20.2 13.8 25.1 64 0.0 0 0 SO 8 11 heiter ---
Regensburg 366 1016.7 18.2 14.4 24.0 79 0.0 0 --- N 7 12 wolkenlos ---
Straubing 351 1016.4 20.0 12.5 24.9 66 0.0 0 --- NO 3 5 wolkenlos ---
Großer Arber 1436 ------ 13.5 11.3 14.6 78 0.0 0 --- SO 18 26 wolkenlos ---
Lahr 155 1015.6 19.1 13.8 24.9 76 0.0 0 --- S 6 11 --- ---
Freudenstadt 797 ------ 18.7 11.6 20.7 69 0.0 0 --- - 0 8 --- ---
Stötten 734 1015.7 17.0 14.5 20.3 79 0.0 0 --- O 15 24 --- ---
Augsburg 462 1015.9 19.5 11.4 23.1 72 0.0 0 --- - 0 7 wolkenlos ---
München-Flh. 444 1016.2 18.2 11.8 23.2 77 0.0 0 0 NO 8 13 heiter ---
Fürstenzell 476 1016.1 19.9 15.2 22.5 67 0.0 0 --- NO 8 12 --- ---
Feldberg/Schw. 1486 ------ 15.5 12.7 15.5 47 0.0 0 0 W 4 13 wolkenlos ---
Konstanz 443 1016.1 17.5 14.8 25.3 81 0.0 0 --- O 5 7 wolkenlos ---
Kempten 705 1016.0 16.5 11.7 22.8 73 0.0 0 --- SO 5 12 wolkenlos ---
Oberstdorf 806 ------ 15.3 7.4 22.0 70 0.0 0 --- SO 2 7 wolkenlos ---
Zugspitze 2960 ------ 4.0 3.4 4.7 66 ---- --- 440 W 18 33 wolkenlos ---
Hohenpeißenberg 977 ------ 17.3 14.8 19.3 71 0.0 0 --- SW 11 18 wolkenlos ---

                                                                                                Tabelle: 20 : 00 UHR  

STATIONHÖHELUFTD.TEMP.T-MinT-MaxU%RR1RR12SSSDDFFFXWetter+WolkenBöen
UFS TW Ems 0 1013.8 16.1 16.0 18.9 90 ---- --- --- -- 14 --- --- ---
UFS Deutsche Bucht 26 1013.8 16.6 15.5 18.9 86 ---- --- --- -- 14 --- --- ---
Helgoland 4 1013.5 17.3 16.6 21.7 76 0.0 0 --- -- --- ---   ---
List/Sylt 26 1013.7 18.5 18.1 24.0 65 0.0 0 0 -- --- ---   ---
Schleswig 43 1013.3 21.4 18.9 28.2 74 0.0 3 --- O 10 18 --- ---
Leuchtturm Kiel 5 1013.0 19.2 15.2 26.2 73 ---- --- --- NO 30 33 --- ---
Kiel 27 1013.2 18.7 16.4 28.1 87 0.2 7 --- N 7 17 Regen ---
Fehmarn 3 1013.8 20.1 18.7 27.2 73 0.0 0 --- NW 27 44 --- ---
Arkona 42 1014.9 19.6 19.0 21.8 76 0.0 --- --- O 26 40 --- ---
Norderney 11 1013.9 18.1 17.7 22.1 80 0.0 0 --- N 17 22 --- ---
Leuchtt. Alte Weser 32 1013.2 17.4 17.2 22.9 85 ---- --- --- N 25 --- --- ---
Cuxhaven 5 1013.2 20.4 19.6 26.7 81 0.0 0 --- NW 12 22   ---
Hamburg-Flh 11 1012.5 23.3 19.9 28.8 60 0.0 0 0 N 10 31 stark bewölkt ---
Schwerin 59 1012.6 27.3 20.4 29.4 37 0.0 0 --- SO 8 22 --- ---
Rostock 4 1013.4 27.0 19.3 29.2 44 0.0 0 --- SO 16 34 --- ---
Greifswald 2 1014.5 25.8 20.2 28.3 49 0.0 0 0 SO 11 --- heiter ---
Emden 0 1013.2 21.3 18.3 26.3 69 0.0 0 --- N 14 21 Niederschlag ---
Bremen-Flh. 5 1012.1 24.8 19.1 29.0 62 0.0 3 0 N 12 25 heiter ---
Lüchow 17 1012.6 27.6 20.3 29.7 39 0.0 0 --- S 4 10 --- ---
Marnitz 81 1013.0 26.3 20.4 28.6 40 0.0 0 --- S 9 24 --- ---
Waren 70 1013.5 26.6 20.1 28.0 39 0.0 0 --- SO 12 22 --- ---
Neuruppin 38 1013.6 27.2 20.1 29.1 34 0.0 0 --- SO 8 17 --- ---
Angermünde 56 1014.5 26.2 19.8 28.6 37 0.0 0 0 O 12 21 --- ---
Münster/Osnabr.-Flh. 48 1011.6 26.8 19.1 28.7 56 0.0 0 0 NO 4 5 heiter ---
Hannover-Flh. 59 1012.0 26.7 19.6 29.3 42 0.0 0 0 S 9 18 heiter ---
Magdeburg 76 1012.5 29.0 20.5 30.2 34 0.0 0 --- SO 4 10 --- ---
Potsdam 81 1013.4 26.9 19.1 30.3 36 0.0 0 0 SO 9 19 heiter ---
Berlin-Tegel 37 1013.6 27.5 22.3 29.5 31 0.0 0 0 SO 12 28 heiter ---
Berlin-Tempelhof 48 1013.6 27.6 21.1 29.3 32 0.0 0 --- SO 10 21 --- ---
Berlin-Dahlem 51 1013.3 26.9 19.3 29.4 --- ---- 0 0 SO 11 --- heiter ---
Lindenberg 91 1013.9 27.7 20.7 29.4 26 0.0 0 0 SO 7 20 heiter ---
Düsseldorf-Flh. 45 1011.0 28.1 20.8 29.7 41 0.0 0 0 NW 13 18 heiter ---
Essen 150 1011.2 26.3 20.6 28.8 48 0.0 0 --- N 8 15 --- ---
Kahler Asten 839 ------ 21.2 17.0 23.1 52 0.0 0 --- S 13 21 --- ---
Bad Lippspringe 157 1011.6 25.5 20.9 28.9 54 0.0 0 --- SO 7 14 --- ---
Fritzlar 174 1012.0 24.9 17.0 29.0 67 ---- 0 0 SW 4 --- heiter ---
Brocken 1142 ------ 18.3 15.4 20.4 55 ---- 0 0 S 15 23 heiter ---
Leipzig-Flh. 142 1012.9 25.5 21.4 28.8 46 0.0 0 0 O 11 22 heiter ---
Dresden-Flh. 227 1013.3 26.2 20.8 28.6 44 0.0 0 0 O 16 26 heiter ---
Cottbus 69 1013.6 27.8 21.1 29.9 31 0.0 0 --- SO 11 24 wolkenlos ---
Görlitz 238 1014.3 23.9 18.4 25.9 56 0.0 0 --- O 15 22 wolkenlos ---
Aachen 231 1011.1 25.0 20.8 26.0 57 0.0 0 --- NO 5 11 --- ---
Nürburg 485 1010.9 25.4 15.5 26.1 44 0.0 0 --- S 5 16 --- ---
Köln/Bonn-Flh. 92 1011.0 26.9 17.2 29.9 49 0.0 0 0 S 8 17 heiter ---
Gießen/Wettenberg 203 1011.4 26.2 17.7 29.0 47 0.0 0 --- SO 7 15 --- ---
Wasserkuppe 921 ------ 20.1 17.4 23.6 59 0.0 0 0 SO 8 16 heiter ---
Meiningen 450 1012.2 25.1 18.9 26.9 42 0.0 0 --- SW 6 12 --- ---
Erfurt 316 1011.9 26.5 18.4 29.4 41 0.0 0 0 NO 9 16 heiter ---
Gera 311 1012.4 25.0 18.4 27.9 51 0.0 0 --- O 10 18 --- ---
Fichtelberg 1213 ------ 17.1 13.7 19.3 61 ---- --- --- -- --- ---   ---
Trier 265 1011.0 27.2 15.8 29.0 42 0.0 0 --- S 7 20 --- ---
Hahn-Flh. 497 1011.2 24.5 17.3 26.1 50 0.0 0 --- NW 5 12 --- ---
Frankfurt/M-Flh. 112 1011.5 29.5 20.7 30.9 35 0.0 0 0 S 6 18 heiter ---
OF-Wetterpark 119 1011.6 27.3 19.5 29.5 50 0.0 0 --- SO 6 9 --- ---
Würzburg 268 1012.4 26.2 17.6 28.5 46 0.0 0 --- SW 5 17 --- ---
Bamberg 239 1012.0 26.2 18.7 30.4 48 0.0 0 --- SW 4 6 --- ---
Hof 567 1012.0 24.7 17.9 26.8 44 0.0 0 --- SO 5 12 --- ---
Weiden 438 1011.9 26.1 18.3 28.4 44 0.0 0 --- SO 4 12 wolkenlos ---
Saarbrücken-Flh. 320 1011.4 25.8 19.2 27.9 45 0.0 0 0 S 7 17 heiter ---
Karlsruhe-Rheinst. 116 1012.0 26.1 18.7 30.1 58 0.0 0 --- SO 5 14 --- ---
Mannheim 96 1011.2 28.5 20.5 30.3 41 0.0 0 --- S 11 18 --- ---
Stuttgart-Flh. 371 1012.0 24.3 17.7 29.0 60 0.0 0 --- O 10 15 heiter ---
Öhringen 276 1011.6 26.7 21.7 29.6 53 0.0 0 --- N 4 7 --- ---
Nürnberg-Flh. 314 1011.6 27.9 20.2 30.0 37 0.0 0 0 N 4 9 heiter ---
Regensburg 366 1011.7 27.4 18.2 30.7 33 0.0 0 --- O 5 10 --- ---
Straubing 351 1011.7 27.2 19.7 29.2 44 0.0 0 --- NW 7 13 wolkenlos ---
Großer Arber 1436 ------ 16.8 13.5 20.1 71 0.0 0 --- NO 10 17 --- ---
Lahr 155 1011.7 27.5 19.0 29.7 51 0.0 0 --- W 5 12 --- ---
Freudenstadt 797 ------ 23.1 17.9 25.7 50 0.0 0 --- N 5 15 --- ---
Stötten 734 1012.5 20.2 16.8 25.8 61 0.5 1 --- S 8 25 Regen ---
Augsburg 462 1012.3 22.2 18.2 27.0 65 0.0 0 --- NO 5 14 --- ---
München-Flh. 444 1011.8 25.5 18.1 27.9 47 0.0 0 0 NO 4 13 heiter ---
Fürstenzell 476 1011.4 27.2 19.7 28.7 32 0.0 0 --- SW 4 11   ---
Feldberg/Schw. 1486 ------ 16.9 15.4 19.0 51 0.0 0 0 W 6 22 --- ---
Konstanz 443 1012.4 25.7 17.4 29.6 46 0.0 0 --- W 5 12 --- ---
Kempten 705 1011.3 24.5 16.5 27.8 45 0.0 0 --- N 5 10 --- ---
Oberstdorf 806 ------ 21.4 15.3 27.7 67 0.0 0 --- S 2 17 Regen ---
Zugspitze 2960 ------ 6.2 4.1 9.5 82 ---- --- --- N 6 13 Nebel ---
Hohenpeißenberg 977 ------ 21.5 17.3 25.6 51 0.0 0 --- NO 17 24 --- ---

 

  • Wetterzustand
  • Windrichtung und -geschwindigkeit
  • Luftdruck
  • relative Luftfeuchtigkeit
  • Sichtweite
  • Gesamtbedeckungsgrad
  • Niederschlag
  • Sonnenscheindauer

 Höhe:     m über NN
Luftd.:   auf Meereshöhe reduzierter Luftdruck in hPa
TEMP.:   Lufttemperatur in Grad Celsius
T-MIN:   Minimumtemperatur der Luft in 2m Höhe in Grad Celsius, von 18 UTC Vortag bis 06 UTC heute
T-MAX:  Maximumtemperatur der Luft in 2m Höhe in Grad Celsius, von 18 UTC Vortag bis 06 UTC heute
RR1:     Niederschlagsmenge, einstündig, mm ist gleich Liter pro
RR12:   Niederschlagsmenge, 12 stündig, 18 UTC Vortag bis 06 UTC heute in mm ist gleich Liter pro
SSS:     Gesamtschneehöhe
DD:      Windrichtung
FF:       Windgeschwindigkeit letztes 10-Minutenmittel in km/h
FX:       höchste Windspitze während der letzten Stunde in km/h
---:      Wert nicht vorhanden

 

2009-2019

Unwetterwarnungen

 

  Radarbild           

aktueller Radarfilm Deutschland

  Europa-Meteoalarm